sensor_id;sensor_type;location;lat;lon;timestamp;temperature;humidity
64951;DHT22;51482;47.014;7.652;2024-02-26T00:00:10;7.50;99.90
64951;DHT22;51482;47.014;7.652;2024-02-26T00:02:37;7.20;99.90
64951;DHT22;51482;47.014;7.652;2024-02-26T00:05:05;6.80;99.90
64951;DHT22;51482;47.014;7.652;2024-02-26T00:07:31;7.10;99.90
64951;DHT22;51482;47.014;7.652;2024-02-26T00:09:57;7.60;99.90
64951;DHT22;51482;47.014;7.652;2024-02-26T00:12:22;7.40;99.90
64951;DHT22;51482;47.014;7.652;2024-02-26T00:14:48;7.20;99.90
64951;DHT22;51482;47.014;7.652;2024-02-26T00:17:15;7.10;99.90
64951;DHT22;51482;47.014;7.652;2024-02-26T00:19:41;6.60;99.90
64951;DHT22;51482;47.014;7.652;2024-02-26T00:22:06;7.10;99.90
64951;DHT22;51482;47.014;7.652;2024-02-26T00:24:32;7.40;99.90
64951;DHT22;51482;47.014;7.652;2024-02-26T00:26:59;7.50;99.90
64951;DHT22;51482;47.014;7.652;2024-02-26T00:29:24;6.40;99.90
64951;DHT22;51482;47.014;7.652;2024-02-26T00:31:51;7.50;99.90
64951;DHT22;51482;47.014;7.652;2024-02-26T00:34:16;7.50;99.90
64951;DHT22;51482;47.014;7.652;2024-02-26T00:36:42;6.90;99.90
64951;DHT22;51482;47.014;7.652;2024-02-26T00:39:07;6.50;99.90
64951;DHT22;51482;47.014;7.652;2024-02-26T00:41:33;7.70;99.90
64951;DHT22;51482;47.014;7.652;2024-02-26T00:44:03;7.60;99.90
64951;DHT22;51482;47.014;7.652;2024-02-26T00:46:28;7.00;99.90
64951;DHT22;51482;47.014;7.652;2024-02-26T00:48:54;7.10;99.90
64951;DHT22;51482;47.014;7.652;2024-02-26T00:51:19;7.60;99.90
64951;DHT22;51482;47.014;7.652;2024-02-26T00:53:45;6.70;99.90
64951;DHT22;51482;47.014;7.652;2024-02-26T00:56:10;7.20;99.90
64951;DHT22;51482;47.014;7.652;2024-02-26T00:58:36;7.60;99.90
64951;DHT22;51482;47.014;7.652;2024-02-26T01:01:02;6.90;99.90
64951;DHT22;51482;47.014;7.652;2024-02-26T01:03:28;6.80;99.90
64951;DHT22;51482;47.014;7.652;2024-02-26T01:05:54;7.40;99.90
64951;DHT22;51482;47.014;7.652;2024-02-26T01:08:19;6.80;99.90
64951;DHT22;51482;47.014;7.652;2024-02-26T01:10:45;7.00;99.90
64951;DHT22;51482;47.014;7.652;2024-02-26T01:13:11;7.20;99.90
64951;DHT22;51482;47.014;7.652;2024-02-26T01:15:36;7.00;99.90
64951;DHT22;51482;47.014;7.652;2024-02-26T01:18:02;7.00;99.90
64951;DHT22;51482;47.014;7.652;2024-02-26T01:20:28;7.10;99.90
64951;DHT22;51482;47.014;7.652;2024-02-26T01:22:53;6.70;99.90
64951;DHT22;51482;47.014;7.652;2024-02-26T01:25:19;7.00;99.90
64951;DHT22;51482;47.014;7.652;2024-02-26T01:27:45;7.60;99.90
64951;DHT22;51482;47.014;7.652;2024-02-26T01:30:11;6.80;99.90
64951;DHT22;51482;47.014;7.652;2024-02-26T01:32:36;6.70;99.90
64951;DHT22;51482;47.014;7.652;2024-02-26T01:35:02;7.00;99.90
64951;DHT22;51482;47.014;7.652;2024-02-26T01:37:35;6.80;99.90
64951;DHT22;51482;47.014;7.652;2024-02-26T01:40:01;6.60;99.90
64951;DHT22;51482;47.014;7.652;2024-02-26T01:42:29;6.50;99.90
64951;DHT22;51482;47.014;7.652;2024-02-26T01:44:56;6.80;99.90
64951;DHT22;51482;47.014;7.652;2024-02-26T01:47:22;7.10;99.90
64951;DHT22;51482;47.014;7.652;2024-02-26T01:49:48;6.30;99.90
64951;DHT22;51482;47.014;7.652;2024-02-26T01:52:13;7.40;99.90
64951;DHT22;51482;47.014;7.652;2024-02-26T01:54:40;7.50;99.90
64951;DHT22;51482;47.014;7.652;2024-02-26T01:57:08;6.80;99.90
64951;DHT22;51482;47.014;7.652;2024-02-26T01:59:35;6.90;99.90
64951;DHT22;51482;47.014;7.652;2024-02-26T02:02:03;6.60;99.90
64951;DHT22;51482;47.014;7.652;2024-02-26T02:04:29;6.80;99.90
64951;DHT22;51482;47.014;7.652;2024-02-26T02:06:54;6.80;99.90
64951;DHT22;51482;47.014;7.652;2024-02-26T02:09:21;6.40;99.90
64951;DHT22;51482;47.014;7.652;2024-02-26T02:11:48;6.50;99.90
64951;DHT22;51482;47.014;7.652;2024-02-26T02:14:14;7.20;99.90
64951;DHT22;51482;47.014;7.652;2024-02-26T02:16:40;6.40;99.90
64951;DHT22;51482;47.014;7.652;2024-02-26T02:19:05;6.50;99.90
64951;DHT22;51482;47.014;7.652;2024-02-26T02:21:31;6.30;99.90
64951;DHT22;51482;47.014;7.652;2024-02-26T02:23:56;6.90;99.90
64951;DHT22;51482;47.014;7.652;2024-02-26T02:26:22;7.50;99.90
64951;DHT22;51482;47.014;7.652;2024-02-26T02:28:48;7.10;99.90
64951;DHT22;51482;47.014;7.652;2024-02-26T02:31:14;7.00;99.90
64951;DHT22;51482;47.014;7.652;2024-02-26T02:33:40;7.10;99.90
64951;DHT22;51482;47.014;7.652;2024-02-26T02:36:06;7.60;99.90
64951;DHT22;51482;47.014;7.652;2024-02-26T02:38:36;7.00;99.90
64951;DHT22;51482;47.014;7.652;2024-02-26T02:41:01;6.60;99.90
64951;DHT22;51482;47.014;7.652;2024-02-26T02:43:27;6.90;99.90
64951;DHT22;51482;47.014;7.652;2024-02-26T02:45:52;6.90;99.90
64951;DHT22;51482;47.014;7.652;2024-02-26T02:48:18;7.50;99.90
64951;DHT22;51482;47.014;7.652;2024-02-26T02:50:43;7.40;99.90
64951;DHT22;51482;47.014;7.652;2024-02-26T02:53:09;8.30;99.90
64951;DHT22;51482;47.014;7.652;2024-02-26T02:55:35;7.30;99.90
64951;DHT22;51482;47.014;7.652;2024-02-26T02:58:01;7.00;99.90
64951;DHT22;51482;47.014;7.652;2024-02-26T03:00:26;7.00;99.90
64951;DHT22;51482;47.014;7.652;2024-02-26T03:02:52;7.40;99.90
64951;DHT22;51482;47.014;7.652;2024-02-26T03:05:17;7.70;99.90
64951;DHT22;51482;47.014;7.652;2024-02-26T03:07:43;7.20;99.90
64951;DHT22;51482;47.014;7.652;2024-02-26T03:10:08;7.20;99.90
64951;DHT22;51482;47.014;7.652;2024-02-26T03:12:34;7.20;99.90
64951;DHT22;51482;47.014;7.652;2024-02-26T03:15:00;7.10;99.90
64951;DHT22;51482;47.014;7.652;2024-02-26T03:17:29;7.30;99.90
64951;DHT22;51482;47.014;7.652;2024-02-26T03:19:55;6.50;99.90
64951;DHT22;51482;47.014;7.652;2024-02-26T03:22:20;7.00;99.90
64951;DHT22;51482;47.014;7.652;2024-02-26T03:24:47;7.40;99.90
64951;DHT22;51482;47.014;7.652;2024-02-26T03:27:12;7.40;99.90
64951;DHT22;51482;47.014;7.652;2024-02-26T03:29:38;7.90;99.90
64951;DHT22;51482;47.014;7.652;2024-02-26T03:32:05;7.70;99.90
64951;DHT22;51482;47.014;7.652;2024-02-26T03:34:32;7.20;99.90
64951;DHT22;51482;47.014;7.652;2024-02-26T03:37:00;8.00;99.90
64951;DHT22;51482;47.014;7.652;2024-02-26T03:39:25;7.20;99.90
64951;DHT22;51482;47.014;7.652;2024-02-26T03:41:51;7.10;99.90
64951;DHT22;51482;47.014;7.652;2024-02-26T03:44:16;6.80;99.90
64951;DHT22;51482;47.014;7.652;2024-02-26T03:46:42;7.10;99.90
64951;DHT22;51482;47.014;7.652;2024-02-26T03:49:10;7.30;99.90
64951;DHT22;51482;47.014;7.652;2024-02-26T03:51:36;6.60;99.90
64951;DHT22;51482;47.014;7.652;2024-02-26T03:54:03;7.70;99.90
64951;DHT22;51482;47.014;7.652;2024-02-26T03:56:28;7.60;99.90
64951;DHT22;51482;47.014;7.652;2024-02-26T03:58:54;7.50;99.90
64951;DHT22;51482;47.014;7.652;2024-02-26T04:01:20;7.00;99.90
64951;DHT22;51482;47.014;7.652;2024-02-26T04:03:45;7.00;99.90
64951;DHT22;51482;47.014;7.652;2024-02-26T04:06:11;7.40;99.90
64951;DHT22;51482;47.014;7.652;2024-02-26T04:08:40;7.40;99.90
64951;DHT22;51482;47.014;7.652;2024-02-26T04:11:05;7.30;99.90
64951;DHT22;51482;47.014;7.652;2024-02-26T04:13:34;6.60;99.90
64951;DHT22;51482;47.014;7.652;2024-02-26T04:16:00;7.40;99.90
64951;DHT22;51482;47.014;7.652;2024-02-26T04:18:27;6.60;99.90
64951;DHT22;51482;47.014;7.652;2024-02-26T04:20:53;7.00;99.90
64951;DHT22;51482;47.014;7.652;2024-02-26T04:23:19;7.00;99.90
64951;DHT22;51482;47.014;7.652;2024-02-26T04:25:45;6.90;99.90
64951;DHT22;51482;47.014;7.652;2024-02-26T04:28:11;6.60;99.90
64951;DHT22;51482;47.014;7.652;2024-02-26T04:30:37;7.00;99.90
64951;DHT22;51482;47.014;7.652;2024-02-26T04:33:03;7.00;99.90
64951;DHT22;51482;47.014;7.652;2024-02-26T04:35:29;6.90;99.90
64951;DHT22;51482;47.014;7.652;2024-02-26T04:37:54;6.90;99.90
64951;DHT22;51482;47.014;7.652;2024-02-26T04:40:20;6.60;99.90
64951;DHT22;51482;47.014;7.652;2024-02-26T04:42:45;7.40;99.90
64951;DHT22;51482;47.014;7.652;2024-02-26T04:45:11;7.00;99.90
64951;DHT22;51482;47.014;7.652;2024-02-26T04:47:37;7.00;99.90
64951;DHT22;51482;47.014;7.652;2024-02-26T04:50:02;7.50;99.90
64951;DHT22;51482;47.014;7.652;2024-02-26T04:52:28;7.10;99.90
64951;DHT22;51482;47.014;7.652;2024-02-26T04:54:54;6.90;99.90
64951;DHT22;51482;47.014;7.652;2024-02-26T04:57:20;6.90;99.90
64951;DHT22;51482;47.014;7.652;2024-02-26T04:59:46;6.80;99.90
64951;DHT22;51482;47.014;7.652;2024-02-26T05:02:12;6.90;99.90
64951;DHT22;51482;47.014;7.652;2024-02-26T05:04:38;7.00;99.90
64951;DHT22;51482;47.014;7.652;2024-02-26T05:07:04;7.40;99.90
64951;DHT22;51482;47.014;7.652;2024-02-26T05:09:30;7.10;99.90
64951;DHT22;51482;47.014;7.652;2024-02-26T05:11:55;6.90;99.90
64951;DHT22;51482;47.014;7.652;2024-02-26T05:14:21;7.60;99.90
64951;DHT22;51482;47.014;7.652;2024-02-26T05:16:47;7.50;99.90
64951;DHT22;51482;47.014;7.652;2024-02-26T05:19:13;7.10;99.90
64951;DHT22;51482;47.014;7.652;2024-02-26T05:21:38;7.50;99.90
64951;DHT22;51482;47.014;7.652;2024-02-26T05:24:05;7.50;99.90
64951;DHT22;51482;47.014;7.652;2024-02-26T05:26:31;7.00;99.90
64951;DHT22;51482;47.014;7.652;2024-02-26T05:28:57;7.40;99.90
64951;DHT22;51482;47.014;7.652;2024-02-26T05:31:26;7.60;99.90
64951;DHT22;51482;47.014;7.652;2024-02-26T05:33:52;7.60;99.90
64951;DHT22;51482;47.014;7.652;2024-02-26T05:36:18;7.50;99.90
64951;DHT22;51482;47.014;7.652;2024-02-26T05:38:45;7.00;99.90
64951;DHT22;51482;47.014;7.652;2024-02-26T05:41:11;7.00;99.90
64951;DHT22;51482;47.014;7.652;2024-02-26T05:43:37;6.50;99.90
64951;DHT22;51482;47.014;7.652;2024-02-26T05:46:03;6.80;99.90
64951;DHT22;51482;47.014;7.652;2024-02-26T05:48:28;6.90;99.90
64951;DHT22;51482;47.014;7.652;2024-02-26T05:50:54;7.40;99.90
64951;DHT22;51482;47.014;7.652;2024-02-26T05:53:19;7.50;99.90
64951;DHT22;51482;47.014;7.652;2024-02-26T05:55:45;7.40;99.90
64951;DHT22;51482;47.014;7.652;2024-02-26T05:58:10;6.90;99.90
64951;DHT22;51482;47.014;7.652;2024-02-26T06:00:36;7.30;99.90
64951;DHT22;51482;47.014;7.652;2024-02-26T06:03:01;7.00;99.90
64951;DHT22;51482;47.014;7.652;2024-02-26T06:05:27;7.60;99.90
64951;DHT22;51482;47.014;7.652;2024-02-26T06:07:53;7.00;99.90
64951;DHT22;51482;47.014;7.652;2024-02-26T06:10:19;7.10;99.90
64951;DHT22;51482;47.014;7.652;2024-02-26T06:12:46;7.00;99.90
64951;DHT22;51482;47.014;7.652;2024-02-26T06:15:12;6.60;99.90
64951;DHT22;51482;47.014;7.652;2024-02-26T06:17:37;7.50;99.90
64951;DHT22;51482;47.014;7.652;2024-02-26T06:20:03;7.10;99.90
64951;DHT22;51482;47.014;7.652;2024-02-26T06:22:31;6.90;99.90
64951;DHT22;51482;47.014;7.652;2024-02-26T06:24:57;7.20;99.90
64951;DHT22;51482;47.014;7.652;2024-02-26T06:27:23;6.60;99.90
64951;DHT22;51482;47.014;7.652;2024-02-26T06:29:49;7.40;99.90
64951;DHT22;51482;47.014;7.652;2024-02-26T06:32:14;6.10;99.90
64951;DHT22;51482;47.014;7.652;2024-02-26T06:34:40;6.70;99.90
64951;DHT22;51482;47.014;7.652;2024-02-26T06:37:08;7.10;99.90
64951;DHT22;51482;47.014;7.652;2024-02-26T06:39:33;6.80;99.90
64951;DHT22;51482;47.014;7.652;2024-02-26T06:41:59;7.20;99.90
64951;DHT22;51482;47.014;7.652;2024-02-26T06:44:28;6.80;99.90
64951;DHT22;51482;47.014;7.652;2024-02-26T06:46:59;6.90;99.90
64951;DHT22;51482;47.014;7.652;2024-02-26T06:49:25;7.00;99.90
64951;DHT22;51482;47.014;7.652;2024-02-26T06:51:51;6.40;99.90
64951;DHT22;51482;47.014;7.652;2024-02-26T06:54:17;7.30;99.90
64951;DHT22;51482;47.014;7.652;2024-02-26T06:56:42;6.60;99.90
64951;DHT22;51482;47.014;7.652;2024-02-26T06:59:08;7.20;99.90
64951;DHT22;51482;47.014;7.652;2024-02-26T07:01:33;7.60;99.90
64951;DHT22;51482;47.014;7.652;2024-02-26T07:03:59;7.00;99.90
64951;DHT22;51482;47.014;7.652;2024-02-26T07:06:26;7.20;99.90
64951;DHT22;51482;47.014;7.652;2024-02-26T07:08:52;7.10;99.90
64951;DHT22;51482;47.014;7.652;2024-02-26T07:11:18;7.50;99.90
64951;DHT22;51482;47.014;7.652;2024-02-26T07:13:45;7.20;99.90
64951;DHT22;51482;47.014;7.652;2024-02-26T07:16:11;7.20;99.90
64951;DHT22;51482;47.014;7.652;2024-02-26T07:18:37;7.60;99.90
64951;DHT22;51482;47.014;7.652;2024-02-26T07:21:03;7.20;99.90
64951;DHT22;51482;47.014;7.652;2024-02-26T07:23:29;7.40;99.90
64951;DHT22;51482;47.014;7.652;2024-02-26T07:25:54;8.10;99.90
64951;DHT22;51482;47.014;7.652;2024-02-26T07:28:20;7.50;99.90
64951;DHT22;51482;47.014;7.652;2024-02-26T07:30:46;7.90;99.90
64951;DHT22;51482;47.014;7.652;2024-02-26T07:33:11;7.60;99.90
64951;DHT22;51482;47.014;7.652;2024-02-26T07:35:37;7.70;99.90
64951;DHT22;51482;47.014;7.652;2024-02-26T07:38:07;7.70;99.90
64951;DHT22;51482;47.014;7.652;2024-02-26T07:40:32;7.70;99.90
64951;DHT22;51482;47.014;7.652;2024-02-26T07:42:58;7.70;99.90
64951;DHT22;51482;47.014;7.652;2024-02-26T07:45:23;7.80;99.90
64951;DHT22;51482;47.014;7.652;2024-02-26T07:47:49;8.20;99.90
64951;DHT22;51482;47.014;7.652;2024-02-26T07:50:16;7.90;99.90
64951;DHT22;51482;47.014;7.652;2024-02-26T07:52:42;8.30;99.90
64951;DHT22;51482;47.014;7.652;2024-02-26T07:55:09;9.00;99.90
64951;DHT22;51482;47.014;7.652;2024-02-26T07:57:34;9.10;99.90
64951;DHT22;51482;47.014;7.652;2024-02-26T08:00:00;8.70;99.90
64951;DHT22;51482;47.014;7.652;2024-02-26T08:02:26;9.10;99.90
64951;DHT22;51482;47.014;7.652;2024-02-26T08:04:52;8.60;99.90
64951;DHT22;51482;47.014;7.652;2024-02-26T08:07:17;9.10;99.90
64951;DHT22;51482;47.014;7.652;2024-02-26T08:09:43;8.70;99.90
64951;DHT22;51482;47.014;7.652;2024-02-26T08:12:08;8.80;99.90
64951;DHT22;51482;47.014;7.652;2024-02-26T08:14:34;8.80;99.90
64951;DHT22;51482;47.014;7.652;2024-02-26T08:16:59;8.90;99.90
64951;DHT22;51482;47.014;7.652;2024-02-26T08:19:25;9.30;99.90
64951;DHT22;51482;47.014;7.652;2024-02-26T08:21:51;8.80;99.90
64951;DHT22;51482;47.014;7.652;2024-02-26T08:24:17;9.20;99.90
64951;DHT22;51482;47.014;7.652;2024-02-26T08:26:42;9.10;99.90
64951;DHT22;51482;47.014;7.652;2024-02-26T08:29:08;8.70;99.90
64951;DHT22;51482;47.014;7.652;2024-02-26T08:31:33;8.70;99.90
64951;DHT22;51482;47.014;7.652;2024-02-26T08:34:01;8.80;99.90
64951;DHT22;51482;47.014;7.652;2024-02-26T08:36:28;8.70;99.90
64951;DHT22;51482;47.014;7.652;2024-02-26T08:38:53;9.30;99.90
64951;DHT22;51482;47.014;7.652;2024-02-26T08:41:19;8.70;99.90
64951;DHT22;51482;47.014;7.652;2024-02-26T08:43:44;8.60;99.90
64951;DHT22;51482;47.014;7.652;2024-02-26T08:46:10;8.70;99.90
64951;DHT22;51482;47.014;7.652;2024-02-26T08:48:39;8.80;99.90
64951;DHT22;51482;47.014;7.652;2024-02-26T08:51:08;8.80;99.90
64951;DHT22;51482;47.014;7.652;2024-02-26T08:53:38;8.80;99.90
64951;DHT22;51482;47.014;7.652;2024-02-26T08:56:03;9.30;99.90
64951;DHT22;51482;47.014;7.652;2024-02-26T08:58:29;8.80;99.90
64951;DHT22;51482;47.014;7.652;2024-02-26T09:00:55;8.80;99.90
64951;DHT22;51482;47.014;7.652;2024-02-26T09:03:21;9.10;99.90
64951;DHT22;51482;47.014;7.652;2024-02-26T09:05:46;8.90;99.90
64951;DHT22;51482;47.014;7.652;2024-02-26T09:08:12;8.90;99.90
64951;DHT22;51482;47.014;7.652;2024-02-26T09:10:38;9.10;99.90
64951;DHT22;51482;47.014;7.652;2024-02-26T09:13:04;9.30;99.90
64951;DHT22;51482;47.014;7.652;2024-02-26T09:15:30;9.60;99.90
64951;DHT22;51482;47.014;7.652;2024-02-26T09:17:55;10.10;99.90
64951;DHT22;51482;47.014;7.652;2024-02-26T09:20:21;10.00;99.90
64951;DHT22;51482;47.014;7.652;2024-02-26T09:22:48;10.40;99.90
64951;DHT22;51482;47.014;7.652;2024-02-26T09:25:13;10.50;99.90
64951;DHT22;51482;47.014;7.652;2024-02-26T09:27:41;10.60;99.90
64951;DHT22;51482;47.014;7.652;2024-02-26T09:30:08;11.10;99.90
64951;DHT22;51482;47.014;7.652;2024-02-26T09:32:33;11.00;99.90
64951;DHT22;51482;47.014;7.652;2024-02-26T09:34:59;11.00;99.90
64951;DHT22;51482;47.014;7.652;2024-02-26T09:37:25;11.50;99.90
64951;DHT22;51482;47.014;7.652;2024-02-26T09:39:50;11.50;99.90
64951;DHT22;51482;47.014;7.652;2024-02-26T09:42:19;11.30;99.90
64951;DHT22;51482;47.014;7.652;2024-02-26T09:44:45;10.90;99.90
64951;DHT22;51482;47.014;7.652;2024-02-26T09:47:12;11.40;99.90
64951;DHT22;51482;47.014;7.652;2024-02-26T09:49:42;10.80;99.90
64951;DHT22;51482;47.014;7.652;2024-02-26T09:52:08;10.70;99.90
64951;DHT22;51482;47.014;7.652;2024-02-26T09:54:37;10.60;99.90
64951;DHT22;51482;47.014;7.652;2024-02-26T09:57:03;10.60;99.90
64951;DHT22;51482;47.014;7.652;2024-02-26T09:59:38;10.60;99.90
64951;DHT22;51482;47.014;7.652;2024-02-26T10:02:08;10.90;99.90
64951;DHT22;51482;47.014;7.652;2024-02-26T10:04:34;10.50;99.90
64951;DHT22;51482;47.014;7.652;2024-02-26T10:07:01;10.50;99.90
64951;DHT22;51482;47.014;7.652;2024-02-26T10:09:29;11.00;99.90
64951;DHT22;51482;47.014;7.652;2024-02-26T10:11:55;10.50;99.90
64951;DHT22;51482;47.014;7.652;2024-02-26T10:14:20;11.00;99.90
64951;DHT22;51482;47.014;7.652;2024-02-26T10:16:46;10.50;99.90
64951;DHT22;51482;47.014;7.652;2024-02-26T10:19:25;10.50;99.90
64951;DHT22;51482;47.014;7.652;2024-02-26T10:21:57;10.60;99.90
64951;DHT22;51482;47.014;7.652;2024-02-26T10:24:24;10.40;99.90
64951;DHT22;51482;47.014;7.652;2024-02-26T10:26:51;11.00;99.90
64951;DHT22;51482;47.014;7.652;2024-02-26T10:29:18;10.70;99.90
64951;DHT22;51482;47.014;7.652;2024-02-26T10:31:44;10.60;99.90
64951;DHT22;51482;47.014;7.652;2024-02-26T10:34:10;11.10;99.90
64951;DHT22;51482;47.014;7.652;2024-02-26T10:36:36;11.20;99.90
64951;DHT22;51482;47.014;7.652;2024-02-26T10:39:05;10.80;99.90
64951;DHT22;51482;47.014;7.652;2024-02-26T10:41:33;11.40;99.90
64951;DHT22;51482;47.014;7.652;2024-02-26T10:43:59;11.00;99.90
64951;DHT22;51482;47.014;7.652;2024-02-26T10:46:25;11.40;99.90
64951;DHT22;51482;47.014;7.652;2024-02-26T10:48:51;10.70;99.90
64951;DHT22;51482;47.014;7.652;2024-02-26T10:51:25;11.20;99.90
64951;DHT22;51482;47.014;7.652;2024-02-26T10:53:57;11.60;99.90
64951;DHT22;51482;47.014;7.652;2024-02-26T10:56:33;11.30;99.90
64951;DHT22;51482;47.014;7.652;2024-02-26T10:58:59;10.90;99.90
64951;DHT22;51482;47.014;7.652;2024-02-26T11:01:26;11.30;99.90
64951;DHT22;51482;47.014;7.652;2024-02-26T11:03:55;11.70;99.90
64951;DHT22;51482;47.014;7.652;2024-02-26T11:06:21;11.90;99.90
64951;DHT22;51482;47.014;7.652;2024-02-26T11:08:50;11.40;99.90
64951;DHT22;51482;47.014;7.652;2024-02-26T11:11:20;12.20;99.90
64951;DHT22;51482;47.014;7.652;2024-02-26T11:13:48;11.40;99.90
64951;DHT22;51482;47.014;7.652;2024-02-26T11:16:18;11.60;99.90
64951;DHT22;51482;47.014;7.652;2024-02-26T11:18:46;12.20;99.90
64951;DHT22;51482;47.014;7.652;2024-02-26T11:21:15;11.90;99.90
64951;DHT22;51482;47.014;7.652;2024-02-26T11:23:42;11.90;99.90
64951;DHT22;51482;47.014;7.652;2024-02-26T11:26:09;11.90;99.90
64951;DHT22;51482;47.014;7.652;2024-02-26T11:28:37;12.10;99.90
64951;DHT22;51482;47.014;7.652;2024-02-26T11:31:04;12.20;99.90
64951;DHT22;51482;47.014;7.652;2024-02-26T11:33:30;12.20;99.90
64951;DHT22;51482;47.014;7.652;2024-02-26T11:35:56;11.60;99.90
64951;DHT22;51482;47.014;7.652;2024-02-26T11:38:24;12.20;99.90
64951;DHT22;51482;47.014;7.652;2024-02-26T11:40:51;12.40;99.90
64951;DHT22;51482;47.014;7.652;2024-02-26T11:43:22;12.50;99.90
64951;DHT22;51482;47.014;7.652;2024-02-26T11:45:49;12.10;99.90
64951;DHT22;51482;47.014;7.652;2024-02-26T11:48:21;12.00;99.90
64951;DHT22;51482;47.014;7.652;2024-02-26T11:50:49;12.00;99.90
64951;DHT22;51482;47.014;7.652;2024-02-26T11:53:24;12.00;99.90
64951;DHT22;51482;47.014;7.652;2024-02-26T11:58:41;12.10;99.90
64951;DHT22;51482;47.014;7.652;2024-02-26T12:01:35;12.00;99.90
64951;DHT22;51482;47.014;7.652;2024-02-26T12:04:01;12.00;99.90
64951;DHT22;51482;47.014;7.652;2024-02-26T12:06:27;12.40;99.90
64951;DHT22;51482;47.014;7.652;2024-02-26T12:08:54;13.00;99.90
64951;DHT22;51482;47.014;7.652;2024-02-26T12:11:20;12.40;99.90
64951;DHT22;51482;47.014;7.652;2024-02-26T12:13:49;13.10;99.90
64951;DHT22;51482;47.014;7.652;2024-02-26T12:16:37;12.40;99.90
64951;DHT22;51482;47.014;7.652;2024-02-26T12:19:07;12.50;99.90
64951;DHT22;51482;47.014;7.652;2024-02-26T12:21:37;12.50;99.90
64951;DHT22;51482;47.014;7.652;2024-02-26T12:24:15;12.80;99.90
64951;DHT22;51482;47.014;7.652;2024-02-26T12:26:41;13.00;99.90
64951;DHT22;51482;47.014;7.652;2024-02-26T12:29:07;12.20;99.90
64951;DHT22;51482;47.014;7.652;2024-02-26T12:31:33;12.30;99.90
64951;DHT22;51482;47.014;7.652;2024-02-26T12:34:02;12.70;99.90
64951;DHT22;51482;47.014;7.652;2024-02-26T12:36:28;12.20;99.90
64951;DHT22;51482;47.014;7.652;2024-02-26T12:38:54;12.10;99.90
64951;DHT22;51482;47.014;7.652;2024-02-26T12:41:20;12.10;99.90
64951;DHT22;51482;47.014;7.652;2024-02-26T12:43:46;12.00;99.90
64951;DHT22;51482;47.014;7.652;2024-02-26T12:46:12;12.50;99.90
64951;DHT22;51482;47.014;7.652;2024-02-26T12:48:39;12.30;99.90
64951;DHT22;51482;47.014;7.652;2024-02-26T12:51:05;12.40;99.90
64951;DHT22;51482;47.014;7.652;2024-02-26T12:53:31;12.00;99.90
64951;DHT22;51482;47.014;7.652;2024-02-26T12:55:57;12.00;99.90
64951;DHT22;51482;47.014;7.652;2024-02-26T12:58:23;11.90;99.90
64951;DHT22;51482;47.014;7.652;2024-02-26T13:00:54;11.80;99.90
64951;DHT22;51482;47.014;7.652;2024-02-26T13:03:21;12.30;99.90
64951;DHT22;51482;47.014;7.652;2024-02-26T13:05:47;11.90;99.90
64951;DHT22;51482;47.014;7.652;2024-02-26T13:08:20;11.80;99.90
64951;DHT22;51482;47.014;7.652;2024-02-26T13:10:46;12.20;99.90
64951;DHT22;51482;47.014;7.652;2024-02-26T13:13:14;11.80;99.90
64951;DHT22;51482;47.014;7.652;2024-02-26T13:15:40;12.20;99.90
64951;DHT22;51482;47.014;7.652;2024-02-26T13:18:10;11.80;99.90
64951;DHT22;51482;47.014;7.652;2024-02-26T13:20:36;11.80;99.90
64951;DHT22;51482;47.014;7.652;2024-02-26T13:23:03;12.20;99.90
64951;DHT22;51482;47.014;7.652;2024-02-26T13:25:30;11.80;99.90
64951;DHT22;51482;47.014;7.652;2024-02-26T13:28:19;12.20;99.90
64951;DHT22;51482;47.014;7.652;2024-02-26T13:30:52;12.80;99.90
64951;DHT22;51482;47.014;7.652;2024-02-26T13:33:19;12.40;99.90
64951;DHT22;51482;47.014;7.652;2024-02-26T13:35:44;11.90;99.90
64951;DHT22;51482;47.014;7.652;2024-02-26T13:38:10;11.80;99.90
64951;DHT22;51482;47.014;7.652;2024-02-26T13:40:37;11.90;99.90
64951;DHT22;51482;47.014;7.652;2024-02-26T13:43:04;11.80;99.90
64951;DHT22;51482;47.014;7.652;2024-02-26T13:45:30;12.20;99.90
64951;DHT22;51482;47.014;7.652;2024-02-26T13:48:02;11.50;99.90
64951;DHT22;51482;47.014;7.652;2024-02-26T13:50:28;11.80;99.90
64951;DHT22;51482;47.014;7.652;2024-02-26T13:52:54;12.20;99.90
64951;DHT22;51482;47.014;7.652;2024-02-26T13:55:22;11.80;99.90
64951;DHT22;51482;47.014;7.652;2024-02-26T13:57:50;11.70;99.90
64951;DHT22;51482;47.014;7.652;2024-02-26T14:00:17;12.00;99.90
64951;DHT22;51482;47.014;7.652;2024-02-26T14:02:43;11.70;99.90
64951;DHT22;51482;47.014;7.652;2024-02-26T14:05:09;12.00;99.90
64951;DHT22;51482;47.014;7.652;2024-02-26T14:07:34;12.00;99.90
64951;DHT22;51482;47.014;7.652;2024-02-26T14:10:00;12.00;99.90
64951;DHT22;51482;47.014;7.652;2024-02-26T14:12:25;11.90;99.90
64951;DHT22;51482;47.014;7.652;2024-02-26T14:14:51;11.50;99.90
64951;DHT22;51482;47.014;7.652;2024-02-26T14:17:19;11.90;99.90
64951;DHT22;51482;47.014;7.652;2024-02-26T14:19:44;11.50;99.90
64951;DHT22;51482;47.014;7.652;2024-02-26T14:22:14;11.50;99.90
64951;DHT22;51482;47.014;7.652;2024-02-26T14:24:41;11.50;99.90
64951;DHT22;51482;47.014;7.652;2024-02-26T14:27:08;11.50;99.90
64951;DHT22;51482;47.014;7.652;2024-02-26T14:29:34;11.40;99.90
64951;DHT22;51482;47.014;7.652;2024-02-26T14:32:00;11.40;99.90
64951;DHT22;51482;47.014;7.652;2024-02-26T14:34:26;11.40;99.90
64951;DHT22;51482;47.014;7.652;2024-02-26T14:36:52;11.40;99.90
64951;DHT22;51482;47.014;7.652;2024-02-26T14:39:17;11.90;99.90
64951;DHT22;51482;47.014;7.652;2024-02-26T14:41:43;11.50;99.90
64951;DHT22;51482;47.014;7.652;2024-02-26T14:44:08;11.20;99.90
64951;DHT22;51482;47.014;7.652;2024-02-26T14:46:35;11.80;99.90
64951;DHT22;51482;47.014;7.652;2024-02-26T14:49:01;12.00;99.90
64951;DHT22;51482;47.014;7.652;2024-02-26T14:51:26;12.00;99.90
64951;DHT22;51482;47.014;7.652;2024-02-26T14:53:52;11.50;99.90
64951;DHT22;51482;47.014;7.652;2024-02-26T14:56:18;11.60;99.90
64951;DHT22;51482;47.014;7.652;2024-02-26T14:58:44;12.40;99.90
64951;DHT22;51482;47.014;7.652;2024-02-26T15:01:11;12.10;99.90
64951;DHT22;51482;47.014;7.652;2024-02-26T15:03:37;11.80;99.90
64951;DHT22;51482;47.014;7.652;2024-02-26T15:06:02;12.20;99.90
64951;DHT22;51482;47.014;7.652;2024-02-26T15:08:28;11.80;99.90
64951;DHT22;51482;47.014;7.652;2024-02-26T15:10:54;12.10;99.90
64951;DHT22;51482;47.014;7.652;2024-02-26T15:13:20;12.30;99.90
64951;DHT22;51482;47.014;7.652;2024-02-26T15:15:45;11.90;99.90
64951;DHT22;51482;47.014;7.652;2024-02-26T15:18:11;11.90;99.90
64951;DHT22;51482;47.014;7.652;2024-02-26T15:20:41;12.40;99.90
64951;DHT22;51482;47.014;7.652;2024-02-26T15:23:07;12.50;99.90
64951;DHT22;51482;47.014;7.652;2024-02-26T15:25:33;12.40;99.90
64951;DHT22;51482;47.014;7.652;2024-02-26T15:27:58;12.50;99.90
64951;DHT22;51482;47.014;7.652;2024-02-26T15:30:24;12.00;99.90
64951;DHT22;51482;47.014;7.652;2024-02-26T15:32:50;12.00;99.90
64951;DHT22;51482;47.014;7.652;2024-02-26T15:35:15;12.00;99.90
64951;DHT22;51482;47.014;7.652;2024-02-26T15:37:41;12.30;99.90